sensor_id;sensor_type;location;lat;lon;timestamp;P1;durP1;ratioP1;P2;durP2;ratioP2
23384;SDS011;11865;45.394;10.978;2023-02-15T00:00:08;103.15;;;48.00;;
23384;SDS011;11865;45.394;10.978;2023-02-15T00:02:39;102.38;;;47.50;;
23384;SDS011;11865;45.394;10.978;2023-02-15T00:05:06;103.25;;;49.88;;
23384;SDS011;11865;45.394;10.978;2023-02-15T00:07:35;116.38;;;51.17;;
23384;SDS011;11865;45.394;10.978;2023-02-15T00:10:02;105.40;;;48.72;;
23384;SDS011;11865;45.394;10.978;2023-02-15T00:12:30;109.35;;;51.75;;
23384;SDS011;11865;45.394;10.978;2023-02-15T00:14:58;119.43;;;51.78;;
23384;SDS011;11865;45.394;10.978;2023-02-15T00:17:29;111.10;;;50.95;;
23384;SDS011;11865;45.394;10.978;2023-02-15T00:19:56;108.45;;;49.95;;
23384;SDS011;11865;45.394;10.978;2023-02-15T00:22:24;109.90;;;50.92;;
23384;SDS011;11865;45.394;10.978;2023-02-15T00:24:52;119.18;;;53.10;;
23384;SDS011;11865;45.394;10.978;2023-02-15T00:27:20;113.72;;;50.08;;
23384;SDS011;11865;45.394;10.978;2023-02-15T00:29:48;110.28;;;50.88;;
23384;SDS011;11865;45.394;10.978;2023-02-15T00:32:15;108.93;;;51.65;;
23384;SDS011;11865;45.394;10.978;2023-02-15T00:34:43;109.93;;;50.25;;
23384;SDS011;11865;45.394;10.978;2023-02-15T00:37:10;104.95;;;48.88;;
23384;SDS011;11865;45.394;10.978;2023-02-15T00:39:38;108.60;;;49.10;;
23384;SDS011;11865;45.394;10.978;2023-02-15T00:42:05;108.18;;;48.50;;
23384;SDS011;11865;45.394;10.978;2023-02-15T00:44:33;106.72;;;48.83;;
23384;SDS011;11865;45.394;10.978;2023-02-15T00:47:00;106.95;;;50.85;;
23384;SDS011;11865;45.394;10.978;2023-02-15T00:49:28;109.70;;;51.13;;
23384;SDS011;11865;45.394;10.978;2023-02-15T00:51:55;108.60;;;49.80;;
23384;SDS011;11865;45.394;10.978;2023-02-15T00:54:23;117.13;;;50.72;;
23384;SDS011;11865;45.394;10.978;2023-02-15T00:56:50;104.60;;;48.95;;
23384;SDS011;11865;45.394;10.978;2023-02-15T00:59:18;116.93;;;51.65;;
23384;SDS011;11865;45.394;10.978;2023-02-15T01:01:47;100.90;;;46.17;;
23384;SDS011;11865;45.394;10.978;2023-02-15T01:04:14;103.15;;;45.80;;
23384;SDS011;11865;45.394;10.978;2023-02-15T01:06:42;170.27;;;90.55;;
23384;SDS011;11865;45.394;10.978;2023-02-15T01:09:09;110.70;;;51.15;;
23384;SDS011;11865;45.394;10.978;2023-02-15T01:11:37;130.40;;;66.47;;
23384;SDS011;11865;45.394;10.978;2023-02-15T01:14:04;97.32;;;48.33;;
23384;SDS011;11865;45.394;10.978;2023-02-15T01:16:32;89.43;;;44.13;;
23384;SDS011;11865;45.394;10.978;2023-02-15T01:18:59;98.28;;;45.58;;
23384;SDS011;11865;45.394;10.978;2023-02-15T01:21:30;90.57;;;43.55;;
23384;SDS011;11865;45.394;10.978;2023-02-15T01:24:02;97.57;;;45.67;;
23384;SDS011;11865;45.394;10.978;2023-02-15T01:26:29;92.28;;;44.20;;
23384;SDS011;11865;45.394;10.978;2023-02-15T01:28:58;92.15;;;44.03;;
23384;SDS011;11865;45.394;10.978;2023-02-15T01:31:25;95.40;;;44.83;;
23384;SDS011;11865;45.394;10.978;2023-02-15T01:33:53;91.25;;;45.17;;
23384;SDS011;11865;45.394;10.978;2023-02-15T01:36:20;105.65;;;47.88;;
23384;SDS011;11865;45.394;10.978;2023-02-15T01:38:48;99.75;;;45.88;;
23384;SDS011;11865;45.394;10.978;2023-02-15T01:41:16;104.78;;;46.60;;
23384;SDS011;11865;45.394;10.978;2023-02-15T01:43:57;108.88;;;48.13;;
23384;SDS011;11865;45.394;10.978;2023-02-15T01:46:38;100.15;;;46.80;;
23384;SDS011;11865;45.394;10.978;2023-02-15T01:49:14;98.47;;;46.95;;
23384;SDS011;11865;45.394;10.978;2023-02-15T01:51:44;96.03;;;44.72;;
23384;SDS011;11865;45.394;10.978;2023-02-15T01:54:31;104.70;;;45.17;;
23384;SDS011;11865;45.394;10.978;2023-02-15T01:57:10;92.32;;;44.92;;
23384;SDS011;11865;45.394;10.978;2023-02-15T01:59:40;95.72;;;46.25;;
23384;SDS011;11865;45.394;10.978;2023-02-15T02:02:13;95.85;;;45.80;;
23384;SDS011;11865;45.394;10.978;2023-02-15T02:04:45;91.13;;;43.80;;
23384;SDS011;11865;45.394;10.978;2023-02-15T02:07:19;90.20;;;43.53;;
23384;SDS011;11865;45.394;10.978;2023-02-15T02:09:49;87.30;;;42.53;;
23384;SDS011;11865;45.394;10.978;2023-02-15T02:12:17;92.68;;;43.45;;
23384;SDS011;11865;45.394;10.978;2023-02-15T02:14:47;84.45;;;41.33;;
23384;SDS011;11865;45.394;10.978;2023-02-15T02:17:17;92.63;;;42.08;;
23384;SDS011;11865;45.394;10.978;2023-02-15T02:30:45;82.15;;;39.58;;
23384;SDS011;11865;45.394;10.978;2023-02-15T02:44:16;83.80;;;37.28;;
23384;SDS011;11865;45.394;10.978;2023-02-15T02:46:50;77.90;;;36.00;;
23384;SDS011;11865;45.394;10.978;2023-02-15T02:49:34;75.18;;;36.00;;
23384;SDS011;11865;45.394;10.978;2023-02-15T02:52:05;80.28;;;37.28;;
23384;SDS011;11865;45.394;10.978;2023-02-15T02:54:53;136.88;;;60.33;;
23384;SDS011;11865;45.394;10.978;2023-02-15T02:57:22;90.80;;;42.70;;
23384;SDS011;11865;45.394;10.978;2023-02-15T02:59:51;95.30;;;40.53;;
23384;SDS011;11865;45.394;10.978;2023-02-15T03:02:21;158.73;;;69.50;;
23384;SDS011;11865;45.394;10.978;2023-02-15T03:04:59;152.32;;;68.95;;
23384;SDS011;11865;45.394;10.978;2023-02-15T03:07:31;149.93;;;72.70;;
23384;SDS011;11865;45.394;10.978;2023-02-15T03:10:02;143.50;;;66.50;;
23384;SDS011;11865;45.394;10.978;2023-02-15T03:12:32;104.18;;;49.40;;
23384;SDS011;11865;45.394;10.978;2023-02-15T03:18:22;101.80;;;46.55;;
23384;SDS011;11865;45.394;10.978;2023-02-15T03:20:54;101.32;;;48.60;;
23384;SDS011;11865;45.394;10.978;2023-02-15T03:23:23;95.03;;;45.15;;
23384;SDS011;11865;45.394;10.978;2023-02-15T03:26:01;86.03;;;42.63;;
23384;SDS011;11865;45.394;10.978;2023-02-15T03:28:38;95.10;;;44.55;;
23384;SDS011;11865;45.394;10.978;2023-02-15T03:31:11;95.38;;;43.97;;
23384;SDS011;11865;45.394;10.978;2023-02-15T03:44:42;92.97;;;43.75;;
23384;SDS011;11865;45.394;10.978;2023-02-15T03:47:15;84.15;;;40.00;;
23384;SDS011;11865;45.394;10.978;2023-02-15T03:49:54;90.90;;;42.05;;
23384;SDS011;11865;45.394;10.978;2023-02-15T03:52:52;87.30;;;41.72;;
23384;SDS011;11865;45.394;10.978;2023-02-15T03:55:21;86.07;;;41.63;;
23384;SDS011;11865;45.394;10.978;2023-02-15T03:57:49;85.75;;;40.63;;
23384;SDS011;11865;45.394;10.978;2023-02-15T04:00:36;89.28;;;41.63;;
23384;SDS011;11865;45.394;10.978;2023-02-15T04:06:00;87.00;;;43.92;;
23384;SDS011;11865;45.394;10.978;2023-02-15T04:08:30;97.25;;;47.05;;
23384;SDS011;11865;45.394;10.978;2023-02-15T04:11:16;86.57;;;40.90;;
23384;SDS011;11865;45.394;10.978;2023-02-15T04:13:43;82.50;;;38.38;;
23384;SDS011;11865;45.394;10.978;2023-02-15T04:16:11;72.03;;;34.83;;
23384;SDS011;11865;45.394;10.978;2023-02-15T04:18:40;69.90;;;34.55;;
23384;SDS011;11865;45.394;10.978;2023-02-15T04:21:28;76.75;;;35.83;;
23384;SDS011;11865;45.394;10.978;2023-02-15T04:24:15;69.72;;;33.47;;
23384;SDS011;11865;45.394;10.978;2023-02-15T04:27:02;73.63;;;32.53;;
23384;SDS011;11865;45.394;10.978;2023-02-15T04:29:31;70.53;;;32.10;;
23384;SDS011;11865;45.394;10.978;2023-02-15T04:32:01;62.60;;;30.70;;
23384;SDS011;11865;45.394;10.978;2023-02-15T04:34:29;66.85;;;30.77;;
23384;SDS011;11865;45.394;10.978;2023-02-15T04:36:56;64.75;;;29.60;;
23384;SDS011;11865;45.394;10.978;2023-02-15T04:39:24;69.93;;;31.02;;
23384;SDS011;11865;45.394;10.978;2023-02-15T04:41:51;64.57;;;31.02;;
23384;SDS011;11865;45.394;10.978;2023-02-15T04:44:19;63.85;;;30.90;;
23384;SDS011;11865;45.394;10.978;2023-02-15T04:46:46;64.90;;;29.85;;
23384;SDS011;11865;45.394;10.978;2023-02-15T04:49:14;64.35;;;30.00;;
23384;SDS011;11865;45.394;10.978;2023-02-15T04:51:41;64.30;;;31.20;;
23384;SDS011;11865;45.394;10.978;2023-02-15T04:54:09;64.07;;;29.33;;
23384;SDS011;11865;45.394;10.978;2023-02-15T04:56:36;67.55;;;31.30;;
23384;SDS011;11865;45.394;10.978;2023-02-15T04:59:05;68.10;;;30.67;;
23384;SDS011;11865;45.394;10.978;2023-02-15T05:01:33;74.38;;;31.58;;
23384;SDS011;11865;45.394;10.978;2023-02-15T05:04:00;77.80;;;33.25;;
23384;SDS011;11865;45.394;10.978;2023-02-15T05:06:28;68.82;;;32.35;;
23384;SDS011;11865;45.394;10.978;2023-02-15T05:08:56;67.50;;;31.75;;
23384;SDS011;11865;45.394;10.978;2023-02-15T05:11:26;68.38;;;30.73;;
23384;SDS011;11865;45.394;10.978;2023-02-15T05:13:53;70.15;;;31.25;;
23384;SDS011;11865;45.394;10.978;2023-02-15T05:16:21;63.85;;;30.33;;
23384;SDS011;11865;45.394;10.978;2023-02-15T05:18:48;71.15;;;33.20;;
23384;SDS011;11865;45.394;10.978;2023-02-15T05:21:16;69.78;;;31.42;;
23384;SDS011;11865;45.394;10.978;2023-02-15T05:23:43;69.50;;;30.92;;
23384;SDS011;11865;45.394;10.978;2023-02-15T05:26:11;82.50;;;32.70;;
23384;SDS011;11865;45.394;10.978;2023-02-15T05:29:03;77.85;;;33.28;;
23384;SDS011;11865;45.394;10.978;2023-02-15T05:31:31;70.68;;;30.60;;
23384;SDS011;11865;45.394;10.978;2023-02-15T05:34:00;72.68;;;31.67;;
23384;SDS011;11865;45.394;10.978;2023-02-15T05:36:27;64.78;;;30.77;;
23384;SDS011;11865;45.394;10.978;2023-02-15T05:38:55;69.68;;;32.13;;
23384;SDS011;11865;45.394;10.978;2023-02-15T05:41:23;68.63;;;30.77;;
23384;SDS011;11865;45.394;10.978;2023-02-15T05:43:51;64.72;;;29.75;;
23384;SDS011;11865;45.394;10.978;2023-02-15T05:46:18;71.60;;;30.95;;
23384;SDS011;11865;45.394;10.978;2023-02-15T05:48:45;68.40;;;29.00;;
23384;SDS011;11865;45.394;10.978;2023-02-15T05:51:13;74.10;;;30.77;;
23384;SDS011;11865;45.394;10.978;2023-02-15T05:53:42;64.90;;;29.15;;
23384;SDS011;11865;45.394;10.978;2023-02-15T05:56:10;65.40;;;30.85;;
23384;SDS011;11865;45.394;10.978;2023-02-15T05:58:39;70.65;;;30.50;;
23384;SDS011;11865;45.394;10.978;2023-02-15T06:03:36;70.30;;;32.20;;
23384;SDS011;11865;45.394;10.978;2023-02-15T06:06:03;80.55;;;32.53;;
23384;SDS011;11865;45.394;10.978;2023-02-15T06:08:32;69.82;;;30.25;;
23384;SDS011;11865;45.394;10.978;2023-02-15T06:11:00;63.65;;;30.17;;
23384;SDS011;11865;45.394;10.978;2023-02-15T06:13:28;62.90;;;31.20;;
23384;SDS011;11865;45.394;10.978;2023-02-15T06:15:55;65.18;;;30.35;;
23384;SDS011;11865;45.394;10.978;2023-02-15T06:18:23;64.95;;;31.67;;
23384;SDS011;11865;45.394;10.978;2023-02-15T06:20:51;76.22;;;30.10;;
23384;SDS011;11865;45.394;10.978;2023-02-15T06:23:18;73.93;;;31.65;;
23384;SDS011;11865;45.394;10.978;2023-02-15T06:25:46;66.97;;;30.98;;
23384;SDS011;11865;45.394;10.978;2023-02-15T06:28:13;71.75;;;31.02;;
23384;SDS011;11865;45.394;10.978;2023-02-15T06:30:41;63.28;;;30.60;;
23384;SDS011;11865;45.394;10.978;2023-02-15T06:33:09;62.50;;;29.38;;
23384;SDS011;11865;45.394;10.978;2023-02-15T06:35:36;69.60;;;30.02;;
23384;SDS011;11865;45.394;10.978;2023-02-15T06:38:04;71.50;;;32.55;;
23384;SDS011;11865;45.394;10.978;2023-02-15T06:40:31;69.03;;;30.77;;
23384;SDS011;11865;45.394;10.978;2023-02-15T06:42:58;75.80;;;31.40;;
23384;SDS011;11865;45.394;10.978;2023-02-15T06:45:26;69.78;;;30.88;;
23384;SDS011;11865;45.394;10.978;2023-02-15T06:47:53;71.57;;;30.90;;
23384;SDS011;11865;45.394;10.978;2023-02-15T06:50:21;68.05;;;32.42;;
23384;SDS011;11865;45.394;10.978;2023-02-15T06:52:48;69.03;;;31.05;;
23384;SDS011;11865;45.394;10.978;2023-02-15T06:55:16;66.10;;;31.25;;
23384;SDS011;11865;45.394;10.978;2023-02-15T06:57:43;66.93;;;30.88;;
23384;SDS011;11865;45.394;10.978;2023-02-15T07:00:11;69.47;;;31.25;;
23384;SDS011;11865;45.394;10.978;2023-02-15T07:02:39;71.53;;;31.58;;
23384;SDS011;11865;45.394;10.978;2023-02-15T07:05:07;65.82;;;32.35;;
23384;SDS011;11865;45.394;10.978;2023-02-15T07:07:34;67.63;;;31.67;;
23384;SDS011;11865;45.394;10.978;2023-02-15T07:10:02;70.25;;;31.48;;
23384;SDS011;11865;45.394;10.978;2023-02-15T07:12:30;71.50;;;32.00;;
23384;SDS011;11865;45.394;10.978;2023-02-15T07:15:15;74.32;;;32.00;;
23384;SDS011;11865;45.394;10.978;2023-02-15T07:17:44;72.40;;;33.05;;
23384;SDS011;11865;45.394;10.978;2023-02-15T07:20:13;76.72;;;34.83;;
23384;SDS011;11865;45.394;10.978;2023-02-15T07:22:43;73.85;;;33.58;;
23384;SDS011;11865;45.394;10.978;2023-02-15T07:25:11;82.22;;;35.17;;
23384;SDS011;11865;45.394;10.978;2023-02-15T07:27:39;70.95;;;33.70;;
23384;SDS011;11865;45.394;10.978;2023-02-15T07:30:08;74.30;;;35.22;;
23384;SDS011;11865;45.394;10.978;2023-02-15T07:32:37;77.13;;;35.13;;
23384;SDS011;11865;45.394;10.978;2023-02-15T07:35:25;69.30;;;32.60;;
23384;SDS011;11865;45.394;10.978;2023-02-15T07:37:53;67.75;;;33.00;;
23384;SDS011;11865;45.394;10.978;2023-02-15T07:40:21;81.78;;;36.10;;
23384;SDS011;11865;45.394;10.978;2023-02-15T07:42:50;76.18;;;35.72;;
23384;SDS011;11865;45.394;10.978;2023-02-15T07:45:20;70.95;;;34.20;;
23384;SDS011;11865;45.394;10.978;2023-02-15T07:47:48;82.57;;;36.40;;
23384;SDS011;11865;45.394;10.978;2023-02-15T07:50:16;81.65;;;35.00;;
23384;SDS011;11865;45.394;10.978;2023-02-15T07:52:44;98.70;;;40.72;;
23384;SDS011;11865;45.394;10.978;2023-02-15T07:55:11;89.95;;;37.95;;
23384;SDS011;11865;45.394;10.978;2023-02-15T07:57:43;95.03;;;36.58;;
23384;SDS011;11865;45.394;10.978;2023-02-15T08:02:40;88.65;;;36.58;;
23384;SDS011;11865;45.394;10.978;2023-02-15T08:05:08;83.85;;;36.92;;
23384;SDS011;11865;45.394;10.978;2023-02-15T08:07:35;86.05;;;37.05;;
23384;SDS011;11865;45.394;10.978;2023-02-15T08:10:03;96.25;;;39.42;;
23384;SDS011;11865;45.394;10.978;2023-02-15T08:12:31;94.45;;;40.63;;
23384;SDS011;11865;45.394;10.978;2023-02-15T08:14:58;92.28;;;38.88;;
23384;SDS011;11865;45.394;10.978;2023-02-15T08:17:26;99.57;;;39.10;;
23384;SDS011;11865;45.394;10.978;2023-02-15T08:19:53;79.50;;;37.90;;
23384;SDS011;11865;45.394;10.978;2023-02-15T08:22:21;80.10;;;35.42;;
23384;SDS011;11865;45.394;10.978;2023-02-15T08:24:48;74.07;;;35.22;;
23384;SDS011;11865;45.394;10.978;2023-02-15T08:27:16;74.30;;;35.03;;
23384;SDS011;11865;45.394;10.978;2023-02-15T08:29:43;79.80;;;35.05;;
23384;SDS011;11865;45.394;10.978;2023-02-15T08:32:11;70.80;;;33.60;;
23384;SDS011;11865;45.394;10.978;2023-02-15T08:34:40;82.38;;;33.05;;
23384;SDS011;11865;45.394;10.978;2023-02-15T08:37:08;70.10;;;30.75;;
23384;SDS011;11865;45.394;10.978;2023-02-15T08:39:36;63.17;;;28.58;;
23384;SDS011;11865;45.394;10.978;2023-02-15T08:42:03;76.10;;;30.63;;
23384;SDS011;11865;45.394;10.978;2023-02-15T08:44:31;76.28;;;30.38;;
23384;SDS011;11865;45.394;10.978;2023-02-15T08:46:58;67.53;;;30.05;;
23384;SDS011;11865;45.394;10.978;2023-02-15T08:49:30;66.78;;;28.50;;
23384;SDS011;11865;45.394;10.978;2023-02-15T08:51:58;63.53;;;28.17;;
23384;SDS011;11865;45.394;10.978;2023-02-15T08:54:26;63.88;;;28.10;;
23384;SDS011;11865;45.394;10.978;2023-02-15T08:56:54;69.10;;;28.70;;
23384;SDS011;11865;45.394;10.978;2023-02-15T08:59:22;65.72;;;30.10;;
23384;SDS011;11865;45.394;10.978;2023-02-15T09:01:51;67.47;;;31.65;;
23384;SDS011;11865;45.394;10.978;2023-02-15T09:04:20;73.10;;;30.48;;
23384;SDS011;11865;45.394;10.978;2023-02-15T09:06:49;71.40;;;29.02;;
23384;SDS011;11865;45.394;10.978;2023-02-15T09:09:17;59.90;;;27.50;;
23384;SDS011;11865;45.394;10.978;2023-02-15T09:11:46;65.53;;;30.35;;
23384;SDS011;11865;45.394;10.978;2023-02-15T09:14:24;69.30;;;29.63;;
23384;SDS011;11865;45.394;10.978;2023-02-15T09:16:53;64.28;;;28.90;;
23384;SDS011;11865;45.394;10.978;2023-02-15T09:19:21;64.18;;;28.85;;
23384;SDS011;11865;45.394;10.978;2023-02-15T09:21:49;63.55;;;28.85;;
23384;SDS011;11865;45.394;10.978;2023-02-15T09:24:18;74.82;;;31.67;;
23384;SDS011;11865;45.394;10.978;2023-02-15T09:26:46;75.05;;;30.23;;
23384;SDS011;11865;45.394;10.978;2023-02-15T09:29:15;77.10;;;31.30;;
23384;SDS011;11865;45.394;10.978;2023-02-15T09:31:47;77.43;;;30.10;;
23384;SDS011;11865;45.394;10.978;2023-02-15T09:34:18;77.15;;;31.55;;
23384;SDS011;11865;45.394;10.978;2023-02-15T09:36:47;71.05;;;31.25;;
23384;SDS011;11865;45.394;10.978;2023-02-15T09:44:58;68.57;;;29.85;;
23384;SDS011;11865;45.394;10.978;2023-02-15T10:09:51;48.30;;;26.25;;
23384;SDS011;11865;45.394;10.978;2023-02-15T10:26:22;56.25;;;28.33;;
23384;SDS011;11865;45.394;10.978;2023-02-15T10:32:24;66.75;;;28.23;;
23384;SDS011;11865;45.394;10.978;2023-02-15T10:37:33;66.53;;;29.42;;
23384;SDS011;11865;45.394;10.978;2023-02-15T10:40:08;54.65;;;29.45;;
23384;SDS011;11865;45.394;10.978;2023-02-15T10:54:31;64.93;;;32.30;;
23384;SDS011;11865;45.394;10.978;2023-02-15T10:57:15;64.60;;;32.15;;
23384;SDS011;11865;45.394;10.978;2023-02-15T11:02:51;68.07;;;33.13;;
23384;SDS011;11865;45.394;10.978;2023-02-15T11:08:11;65.85;;;34.40;;
23384;SDS011;11865;45.394;10.978;2023-02-15T11:10:49;78.75;;;34.47;;
23384;SDS011;11865;45.394;10.978;2023-02-15T11:13:25;82.50;;;35.70;;
23384;SDS011;11865;45.394;10.978;2023-02-15T11:20:56;79.85;;;35.88;;
23384;SDS011;11865;45.394;10.978;2023-02-15T11:23:45;71.75;;;35.20;;
23384;SDS011;11865;45.394;10.978;2023-02-15T11:26:20;80.50;;;36.03;;
23384;SDS011;11865;45.394;10.978;2023-02-15T11:31:44;72.20;;;35.35;;
23384;SDS011;11865;45.394;10.978;2023-02-15T11:34:19;93.70;;;38.67;;
23384;SDS011;11865;45.394;10.978;2023-02-15T11:36:58;76.28;;;37.85;;
23384;SDS011;11865;45.394;10.978;2023-02-15T11:39:32;73.22;;;35.72;;
23384;SDS011;11865;45.394;10.978;2023-02-15T11:42:10;73.78;;;34.95;;
23384;SDS011;11865;45.394;10.978;2023-02-15T11:44:56;73.68;;;35.78;;
23384;SDS011;11865;45.394;10.978;2023-02-15T11:47:34;72.70;;;33.08;;
23384;SDS011;11865;45.394;10.978;2023-02-15T11:50:01;72.95;;;34.22;;
23384;SDS011;11865;45.394;10.978;2023-02-15T11:52:29;69.95;;;34.67;;
23384;SDS011;11865;45.394;10.978;2023-02-15T11:54:58;72.57;;;35.20;;
23384;SDS011;11865;45.394;10.978;2023-02-15T11:57:31;62.30;;;32.08;;
23384;SDS011;11865;45.394;10.978;2023-02-15T12:02:42;69.40;;;32.75;;
23384;SDS011;11865;45.394;10.978;2023-02-15T12:05:17;70.35;;;32.97;;
23384;SDS011;11865;45.394;10.978;2023-02-15T12:08:01;65.43;;;31.42;;
23384;SDS011;11865;45.394;10.978;2023-02-15T12:10:38;62.47;;;31.92;;
23384;SDS011;11865;45.394;10.978;2023-02-15T12:13:22;59.03;;;31.17;;
23384;SDS011;11865;45.394;10.978;2023-02-15T12:15:51;65.85;;;31.85;;
23384;SDS011;11865;45.394;10.978;2023-02-15T12:18:37;65.38;;;33.20;;
23384;SDS011;11865;45.394;10.978;2023-02-15T12:21:08;68.75;;;33.08;;
23384;SDS011;11865;45.394;10.978;2023-02-15T12:26:15;53.17;;;28.85;;
23384;SDS011;11865;45.394;10.978;2023-02-15T12:29:01;70.90;;;31.15;;
23384;SDS011;11865;45.394;10.978;2023-02-15T12:31:40;61.72;;;33.13;;
23384;SDS011;11865;45.394;10.978;2023-02-15T12:36:50;63.03;;;31.45;;
23384;SDS011;11865;45.394;10.978;2023-02-15T12:39:25;64.43;;;32.58;;
23384;SDS011;11865;45.394;10.978;2023-02-15T12:44:31;59.63;;;31.25;;
23384;SDS011;11865;45.394;10.978;2023-02-15T12:49:43;65.65;;;31.75;;
23384;SDS011;11865;45.394;10.978;2023-02-15T12:52:24;57.75;;;30.05;;
23384;SDS011;11865;45.394;10.978;2023-02-15T12:54:52;60.00;;;30.83;;
23384;SDS011;11865;45.394;10.978;2023-02-15T12:59:59;59.08;;;30.67;;
23384;SDS011;11865;45.394;10.978;2023-02-15T13:02:52;68.78;;;32.30;;
23384;SDS011;11865;45.394;10.978;2023-02-15T13:10:56;70.03;;;30.52;;
23384;SDS011;11865;45.394;10.978;2023-02-15T13:13:25;77.53;;;32.58;;
23384;SDS011;11865;45.394;10.978;2023-02-15T13:15:58;61.80;;;30.05;;
23384;SDS011;11865;45.394;10.978;2023-02-15T13:18:34;66.50;;;31.70;;
23384;SDS011;11865;45.394;10.978;2023-02-15T13:23:42;59.00;;;28.00;;
23384;SDS011;11865;45.394;10.978;2023-02-15T13:26:16;53.85;;;26.05;;
23384;SDS011;11865;45.394;10.978;2023-02-15T13:28:58;65.68;;;28.45;;
23384;SDS011;11865;45.394;10.978;2023-02-15T13:31:32;52.40;;;26.70;;
23384;SDS011;11865;45.394;10.978;2023-02-15T13:34:02;52.83;;;26.80;;
23384;SDS011;11865;45.394;10.978;2023-02-15T13:56:21;63.60;;;32.38;;
23384;SDS011;11865;45.394;10.978;2023-02-15T13:59:22;70.10;;;33.60;;
23384;SDS011;11865;45.394;10.978;2023-02-15T14:07:52;64.82;;;32.60;;
23384;SDS011;11865;45.394;10.978;2023-02-15T14:29:24;68.57;;;30.95;;
23384;SDS011;11865;45.394;10.978;2023-02-15T14:31:57;61.47;;;29.73;;
23384;SDS011;11865;45.394;10.978;2023-02-15T14:45:53;55.47;;;29.63;;
23384;SDS011;11865;45.394;10.978;2023-02-15T14:48:39;64.15;;;31.00;;
23384;SDS011;11865;45.394;10.978;2023-02-15T14:51:59;77.57;;;32.90;;
23384;SDS011;11865;45.394;10.978;2023-02-15T14:54:09;73.43;;;31.33;;
23384;SDS011;11865;45.394;10.978;2023-02-15T14:56:37;82.45;;;34.83;;
23384;SDS011;11865;45.394;10.978;2023-02-15T14:59:14;80.00;;;33.53;;
23384;SDS011;11865;45.394;10.978;2023-02-15T15:01:57;76.43;;;33.22;;
23384;SDS011;11865;45.394;10.978;2023-02-15T15:07:17;83.10;;;35.95;;
23384;SDS011;11865;45.394;10.978;2023-02-15T15:09:58;86.00;;;36.08;;
23384;SDS011;11865;45.394;10.978;2023-02-15T15:14:59;81.25;;;37.83;;
23384;SDS011;11865;45.394;10.978;2023-02-15T15:19:59;85.72;;;36.20;;
23384;SDS011;11865;45.394;10.978;2023-02-15T15:22:34;97.22;;;36.28;;
23384;SDS011;11865;45.394;10.978;2023-02-15T15:25:10;82.90;;;37.78;;
23384;SDS011;11865;45.394;10.978;2023-02-15T15:44:19;105.13;;;38.80;;
23384;SDS011;11865;45.394;10.978;2023-02-15T15:47:28;89.68;;;38.00;;
23384;SDS011;11865;45.394;10.978;2023-02-15T15:50:31;88.60;;;37.83;;
23384;SDS011;11865;45.394;10.978;2023-02-15T15:52:59;101.53;;;41.05;;
23384;SDS011;11865;45.394;10.978;2023-02-15T15:55:29;104.35;;;41.28;;
23384;SDS011;11865;45.394;10.978;2023-02-15T15:57:59;91.18;;;38.08;;
23384;SDS011;11865;45.394;10.978;2023-02-15T16:03:12;93.07;;;40.03;;
23384;SDS011;11865;45.394;10.978;2023-02-15T16:05:50;97.35;;;39.70;;
23384;SDS011;11865;45.394;10.978;2023-02-15T16:08:28;94.85;;;40.20;;
23384;SDS011;11865;45.394;10.978;2023-02-15T16:11:23;102.05;;;41.72;;
23384;SDS011;11865;45.394;10.978;2023-02-15T16:13:52;97.63;;;42.45;;
23384;SDS011;11865;45.394;10.978;2023-02-15T16:16:27;105.60;;;41.97;;
23384;SDS011;11865;45.394;10.978;2023-02-15T16:18:55;102.80;;;42.53;;
23384;SDS011;11865;45.394;10.978;2023-02-15T16:21:30;100.22;;;43.53;;
23384;SDS011;11865;45.394;10.978;2023-02-15T16:29:42;101.65;;;42.95;;
23384;SDS011;11865;45.394;10.978;2023-02-15T16:32:17;97.72;;;42.33;;
23384;SDS011;11865;45.394;10.978;2023-02-15T16:34:53;103.72;;;40.88;;
23384;SDS011;11865;45.394;10.978;2023-02-15T16:37:27;113.30;;;43.47;;
23384;SDS011;11865;45.394;10.978;2023-02-15T16:39:58;109.22;;;43.28;;
23384;SDS011;11865;45.394;10.978;2023-02-15T16:42:26;123.05;;;51.05;;
23384;SDS011;11865;45.394;10.978;2023-02-15T16:44:55;107.88;;;44.80;;
23384;SDS011;11865;45.394;10.978;2023-02-15T16:47:31;118.75;;;43.53;;
23384;SDS011;11865;45.394;10.978;2023-02-15T16:50:03;108.88;;;42.05;;
23384;SDS011;11865;45.394;10.978;2023-02-15T16:52:32;111.55;;;41.65;;
23384;SDS011;11865;45.394;10.978;2023-02-15T16:55:00;111.90;;;43.75;;
23384;SDS011;11865;45.394;10.978;2023-02-15T16:57:35;107.20;;;44.45;;
23384;SDS011;11865;45.394;10.978;2023-02-15T17:00:06;113.97;;;43.15;;
23384;SDS011;11865;45.394;10.978;2023-02-15T17:02:42;103.78;;;41.30;;
23384;SDS011;11865;45.394;10.978;2023-02-15T17:08:16;95.30;;;40.28;;
23384;SDS011;11865;45.394;10.978;2023-02-15T17:13:27;104.70;;;43.40;;
23384;SDS011;11865;45.394;10.978;2023-02-15T17:20:59;100.53;;;41.85;;
23384;SDS011;11865;45.394;10.978;2023-02-15T17:23:42;104.30;;;42.35;;
23384;SDS011;11865;45.394;10.978;2023-02-15T17:26:19;115.43;;;43.50;;
23384;SDS011;11865;45.394;10.978;2023-02-15T17:28:54;94.50;;;42.67;;
23384;SDS011;11865;45.394;10.978;2023-02-15T17:31:27;96.40;;;41.63;;
23384;SDS011;11865;45.394;10.978;2023-02-15T17:33:59;103.35;;;44.05;;
23384;SDS011;11865;45.394;10.978;2023-02-15T17:36:28;106.30;;;43.20;;
23384;SDS011;11865;45.394;10.978;2023-02-15T17:41:34;102.72;;;44.28;;
23384;SDS011;11865;45.394;10.978;2023-02-15T17:44:04;114.47;;;45.88;;
23384;SDS011;11865;45.394;10.978;2023-02-15T17:46:34;89.00;;;40.55;;
23384;SDS011;11865;45.394;10.978;2023-02-15T17:49:03;104.28;;;43.15;;
23384;SDS011;11865;45.394;10.978;2023-02-15T17:51:31;102.50;;;40.95;;
23384;SDS011;11865;45.394;10.978;2023-02-15T17:54:01;97.43;;;41.55;;
23384;SDS011;11865;45.394;10.978;2023-02-15T17:57:02;107.35;;;44.88;;
23384;SDS011;11865;45.394;10.978;2023-02-15T17:59:32;92.88;;;41.00;;
23384;SDS011;11865;45.394;10.978;2023-02-15T18:02:00;97.95;;;42.40;;
23384;SDS011;11865;45.394;10.978;2023-02-15T18:04:46;100.43;;;40.70;;
23384;SDS011;11865;45.394;10.978;2023-02-15T18:07:32;92.75;;;41.38;;
23384;SDS011;11865;45.394;10.978;2023-02-15T18:10:18;96.43;;;43.70;;
23384;SDS011;11865;45.394;10.978;2023-02-15T18:13:04;104.50;;;46.58;;
23384;SDS011;11865;45.394;10.978;2023-02-15T18:15:32;99.15;;;45.03;;
23384;SDS011;11865;45.394;10.978;2023-02-15T18:18:01;94.20;;;43.95;;
23384;SDS011;11865;45.394;10.978;2023-02-15T18:20:33;95.53;;;43.58;;
23384;SDS011;11865;45.394;10.978;2023-02-15T18:23:02;92.25;;;43.10;;
23384;SDS011;11865;45.394;10.978;2023-02-15T18:25:30;89.97;;;42.80;;
23384;SDS011;11865;45.394;10.978;2023-02-15T18:27:58;102.63;;;46.17;;
23384;SDS011;11865;45.394;10.978;2023-02-15T18:30:25;93.78;;;43.83;;
23384;SDS011;11865;45.394;10.978;2023-02-15T18:32:54;85.47;;;41.58;;
23384;SDS011;11865;45.394;10.978;2023-02-15T18:35:23;86.75;;;42.05;;